sensor_id;sensor_type;location;lat;lon;timestamp;P1;durP1;ratioP1;P2;durP2;ratioP2
10440;SDS011;5268;49.346;9.522;2023-06-22T03:10:15;10.50;;;9.40;;
10440;SDS011;5268;49.346;9.522;2023-06-22T03:15:17;14.77;;;9.68;;
10440;SDS011;5268;49.346;9.522;2023-06-22T03:20:20;11.32;;;10.15;;
10440;SDS011;5268;49.346;9.522;2023-06-22T03:25:23;11.00;;;9.80;;
10440;SDS011;5268;49.346;9.522;2023-06-22T03:30:25;11.82;;;9.80;;
10440;SDS011;5268;49.346;9.522;2023-06-22T03:35:27;11.85;;;10.05;;
10440;SDS011;5268;49.346;9.522;2023-06-22T03:40:31;12.80;;;11.07;;
10440;SDS011;5268;49.346;9.522;2023-06-22T03:45:33;11.43;;;9.00;;
10440;SDS011;5268;49.346;9.522;2023-06-22T03:50:35;14.85;;;10.10;;
10440;SDS011;5268;49.346;9.522;2023-06-22T03:55:40;11.75;;;10.55;;
10440;SDS011;5268;49.346;9.522;2023-06-22T04:00:50;11.52;;;10.32;;
10440;SDS011;5268;49.346;9.522;2023-06-22T04:05:53;12.43;;;9.98;;
10440;SDS011;5268;49.346;9.522;2023-06-22T04:10:56;12.00;;;10.55;;
10440;SDS011;5268;49.346;9.522;2023-06-22T04:15:58;13.43;;;10.52;;
10440;SDS011;5268;49.346;9.522;2023-06-22T04:21:01;15.00;;;10.70;;
10440;SDS011;5268;49.346;9.522;2023-06-22T04:26:05;10.75;;;9.55;;
10440;SDS011;5268;49.346;9.522;2023-06-22T04:31:07;10.70;;;9.52;;
10440;SDS011;5268;49.346;9.522;2023-06-22T04:36:09;11.98;;;10.35;;
10440;SDS011;5268;49.346;9.522;2023-06-22T04:41:14;15.27;;;11.32;;
10440;SDS011;5268;49.346;9.522;2023-06-22T04:46:23;14.30;;;11.25;;
10440;SDS011;5268;49.346;9.522;2023-06-22T04:51:25;14.23;;;11.15;;
10440;SDS011;5268;49.346;9.522;2023-06-22T04:56:32;15.02;;;10.18;;
10440;SDS011;5268;49.346;9.522;2023-06-22T05:01:34;12.13;;;10.25;;
10440;SDS011;5268;49.346;9.522;2023-06-22T05:06:36;13.90;;;10.25;;
10440;SDS011;5268;49.346;9.522;2023-06-22T05:11:39;14.85;;;10.77;;
10440;SDS011;5268;49.346;9.522;2023-06-22T05:16:41;13.73;;;11.00;;
10440;SDS011;5268;49.346;9.522;2023-06-22T05:21:44;11.68;;;10.15;;
10440;SDS011;5268;49.346;9.522;2023-06-22T05:26:47;13.05;;;10.63;;
10440;SDS011;5268;49.346;9.522;2023-06-22T05:31:50;10.73;;;9.63;;
10440;SDS011;5268;49.346;9.522;2023-06-22T05:36:52;11.68;;;9.48;;
10440;SDS011;5268;49.346;9.522;2023-06-22T05:41:56;13.27;;;9.68;;
10440;SDS011;5268;49.346;9.522;2023-06-22T05:46:58;13.73;;;10.50;;
10440;SDS011;5268;49.346;9.522;2023-06-22T05:52:00;12.45;;;10.10;;
10440;SDS011;5268;49.346;9.522;2023-06-22T05:57:04;12.90;;;9.82;;
10440;SDS011;5268;49.346;9.522;2023-06-22T06:02:06;12.60;;;9.40;;
10440;SDS011;5268;49.346;9.522;2023-06-22T06:07:08;9.80;;;8.80;;
10440;SDS011;5268;49.346;9.522;2023-06-22T06:12:12;9.30;;;8.40;;
10440;SDS011;5268;49.346;9.522;2023-06-22T06:17:15;11.60;;;8.75;;
10440;SDS011;5268;49.346;9.522;2023-06-22T06:22:17;8.52;;;7.72;;
10440;SDS011;5268;49.346;9.522;2023-06-22T06:27:22;9.68;;;8.00;;
10440;SDS011;5268;49.346;9.522;2023-06-22T06:32:30;13.05;;;8.68;;
10440;SDS011;5268;49.346;9.522;2023-06-22T06:37:32;9.80;;;7.82;;
10440;SDS011;5268;49.346;9.522;2023-06-22T06:42:38;9.48;;;7.90;;
10440;SDS011;5268;49.346;9.522;2023-06-22T06:47:41;11.80;;;8.15;;
10440;SDS011;5268;49.346;9.522;2023-06-22T06:52:44;8.65;;;7.75;;
10440;SDS011;5268;49.346;9.522;2023-06-22T06:57:47;8.20;;;7.32;;
10440;SDS011;5268;49.346;9.522;2023-06-22T07:02:49;8.35;;;7.00;;
10440;SDS011;5268;49.346;9.522;2023-06-22T07:07:51;8.55;;;7.68;;
10440;SDS011;5268;49.346;9.522;2023-06-22T07:12:55;8.63;;;7.72;;
10440;SDS011;5268;49.346;9.522;2023-06-22T07:17:57;7.88;;;7.18;;
10440;SDS011;5268;49.346;9.522;2023-06-22T07:22:59;8.10;;;6.45;;
10440;SDS011;5268;49.346;9.522;2023-06-22T07:28:03;9.23;;;6.88;;
10440;SDS011;5268;49.346;9.522;2023-06-22T07:33:06;8.50;;;6.57;;
10440;SDS011;5268;49.346;9.522;2023-06-22T07:38:08;6.70;;;6.00;;
10440;SDS011;5268;49.346;9.522;2023-06-22T07:43:12;7.28;;;6.57;;
10440;SDS011;5268;49.346;9.522;2023-06-22T07:48:14;7.38;;;6.68;;
10440;SDS011;5268;49.346;9.522;2023-06-22T07:53:15;7.45;;;6.00;;
10440;SDS011;5268;49.346;9.522;2023-06-22T07:58:19;7.55;;;6.60;;
10440;SDS011;5268;49.346;9.522;2023-06-22T08:03:21;6.15;;;5.55;;
10440;SDS011;5268;49.346;9.522;2023-06-22T08:08:23;7.07;;;5.78;;
10440;SDS011;5268;49.346;9.522;2023-06-22T08:13:26;6.50;;;5.43;;
10440;SDS011;5268;49.346;9.522;2023-06-22T08:18:29;7.90;;;5.20;;
10440;SDS011;5268;49.346;9.522;2023-06-22T08:23:31;6.90;;;5.32;;
10440;SDS011;5268;49.346;9.522;2023-06-22T08:28:34;5.68;;;5.18;;
10440;SDS011;5268;49.346;9.522;2023-06-22T08:33:36;6.13;;;4.68;;
10440;SDS011;5268;49.346;9.522;2023-06-22T08:38:38;6.75;;;4.53;;
10440;SDS011;5268;49.346;9.522;2023-06-22T08:43:42;6.88;;;4.90;;
10440;SDS011;5268;49.346;9.522;2023-06-22T08:48:44;8.00;;;5.60;;
10440;SDS011;5268;49.346;9.522;2023-06-22T08:53:46;5.82;;;4.85;;
10440;SDS011;5268;49.346;9.522;2023-06-22T08:58:50;6.95;;;4.90;;
10440;SDS011;5268;49.346;9.522;2023-06-22T09:03:52;8.32;;;4.43;;
10440;SDS011;5268;49.346;9.522;2023-06-22T09:08:57;6.75;;;4.50;;
10440;SDS011;5268;49.346;9.522;2023-06-22T09:14:02;6.15;;;4.15;;
10440;SDS011;5268;49.346;9.522;2023-06-22T09:19:04;8.25;;;4.70;;
10440;SDS011;5268;49.346;9.522;2023-06-22T09:24:06;10.48;;;5.10;;
10440;SDS011;5268;49.346;9.522;2023-06-22T09:29:10;7.95;;;4.93;;
10440;SDS011;5268;49.346;9.522;2023-06-22T09:34:12;7.25;;;4.50;;
10440;SDS011;5268;49.346;9.522;2023-06-22T09:39:14;12.85;;;4.90;;
10440;SDS011;5268;49.346;9.522;2023-06-22T09:44:17;6.13;;;4.47;;
10440;SDS011;5268;49.346;9.522;2023-06-22T09:49:19;6.45;;;4.57;;
10440;SDS011;5268;49.346;9.522;2023-06-22T09:54:21;7.03;;;4.55;;
10440;SDS011;5268;49.346;9.522;2023-06-22T09:59:25;9.02;;;4.70;;
10440;SDS011;5268;49.346;9.522;2023-06-22T10:04:27;8.60;;;5.32;;
10440;SDS011;5268;49.346;9.522;2023-06-22T10:09:29;7.80;;;4.85;;
10440;SDS011;5268;49.346;9.522;2023-06-22T10:14:32;7.28;;;4.60;;
10440;SDS011;5268;49.346;9.522;2023-06-22T10:19:35;8.52;;;4.55;;
10440;SDS011;5268;49.346;9.522;2023-06-22T10:24:37;6.65;;;5.10;;
10440;SDS011;5268;49.346;9.522;2023-06-22T10:29:45;7.97;;;5.07;;
10440;SDS011;5268;49.346;9.522;2023-06-22T10:34:47;7.22;;;5.20;;
10440;SDS011;5268;49.346;9.522;2023-06-22T10:39:49;8.85;;;5.03;;
10440;SDS011;5268;49.346;9.522;2023-06-22T10:44:53;10.32;;;5.40;;
10440;SDS011;5268;49.346;9.522;2023-06-22T10:49:55;7.40;;;5.10;;
10440;SDS011;5268;49.346;9.522;2023-06-22T10:54:57;7.55;;;5.20;;
10440;SDS011;5268;49.346;9.522;2023-06-22T11:00:00;10.48;;;4.97;;
10440;SDS011;5268;49.346;9.522;2023-06-22T11:05:04;8.85;;;5.03;;
10440;SDS011;5268;49.346;9.522;2023-06-22T11:10:07;7.05;;;4.93;;
10440;SDS011;5268;49.346;9.522;2023-06-22T11:15:11;6.28;;;4.65;;
10440;SDS011;5268;49.346;9.522;2023-06-22T11:20:13;11.82;;;5.10;;
10440;SDS011;5268;49.346;9.522;2023-06-22T11:25:15;8.07;;;5.32;;
10440;SDS011;5268;49.346;9.522;2023-06-22T11:30:19;11.68;;;5.25;;
10440;SDS011;5268;49.346;9.522;2023-06-22T11:35:21;9.23;;;5.28;;
10440;SDS011;5268;49.346;9.522;2023-06-22T11:40:23;7.18;;;4.80;;
10440;SDS011;5268;49.346;9.522;2023-06-22T11:45:26;8.10;;;4.78;;
10440;SDS011;5268;49.346;9.522;2023-06-22T11:50:28;9.57;;;5.10;;
10440;SDS011;5268;49.346;9.522;2023-06-22T11:55:34;8.45;;;5.10;;
10440;SDS011;5268;49.346;9.522;2023-06-22T12:00:37;7.60;;;5.07;;
10440;SDS011;5268;49.346;9.522;2023-06-22T12:05:40;10.45;;;5.53;;
10440;SDS011;5268;49.346;9.522;2023-06-22T12:10:42;9.82;;;4.80;;
10440;SDS011;5268;49.346;9.522;2023-06-22T12:15:45;10.27;;;5.32;;
10440;SDS011;5268;49.346;9.522;2023-06-22T12:20:47;8.93;;;5.20;;
10440;SDS011;5268;49.346;9.522;2023-06-22T12:25:49;10.57;;;5.30;;
10440;SDS011;5268;49.346;9.522;2023-06-22T12:30:53;9.32;;;5.20;;
10440;SDS011;5268;49.346;9.522;2023-06-22T12:35:57;8.75;;;5.30;;
10440;SDS011;5268;49.346;9.522;2023-06-22T12:40:59;10.88;;;5.55;;
10440;SDS011;5268;49.346;9.522;2023-06-22T12:46:03;8.63;;;4.82;;
10440;SDS011;5268;49.346;9.522;2023-06-22T12:51:05;9.73;;;5.40;;
10440;SDS011;5268;49.346;9.522;2023-06-22T12:56:07;7.15;;;5.35;;
10440;SDS011;5268;49.346;9.522;2023-06-22T13:01:10;9.25;;;5.32;;
10440;SDS011;5268;49.346;9.522;2023-06-22T13:06:12;10.45;;;5.07;;
10440;SDS011;5268;49.346;9.522;2023-06-22T13:11:14;11.57;;;5.55;;
10440;SDS011;5268;49.346;9.522;2023-06-22T13:16:17;7.47;;;4.90;;
10440;SDS011;5268;49.346;9.522;2023-06-22T13:21:19;9.02;;;5.10;;
10440;SDS011;5268;49.346;9.522;2023-06-22T13:26:21;7.35;;;4.80;;
10440;SDS011;5268;49.346;9.522;2023-06-22T13:31:25;10.10;;;5.30;;
10440;SDS011;5268;49.346;9.522;2023-06-22T13:36:27;10.40;;;5.25;;
10440;SDS011;5268;49.346;9.522;2023-06-22T13:41:30;8.82;;;5.53;;
10440;SDS011;5268;49.346;9.522;2023-06-22T13:46:34;12.43;;;5.25;;
10440;SDS011;5268;49.346;9.522;2023-06-22T13:51:36;10.40;;;5.50;;
10440;SDS011;5268;49.346;9.522;2023-06-22T13:56:38;10.50;;;5.32;;
10440;SDS011;5268;49.346;9.522;2023-06-22T14:01:41;8.10;;;5.22;;
10440;SDS011;5268;49.346;9.522;2023-06-22T14:06:43;9.95;;;5.70;;
10440;SDS011;5268;49.346;9.522;2023-06-22T14:11:45;10.88;;;5.07;;
10440;SDS011;5268;49.346;9.522;2023-06-22T14:16:49;8.32;;;5.00;;
10440;SDS011;5268;49.346;9.522;2023-06-22T14:21:51;10.65;;;5.15;;
10440;SDS011;5268;49.346;9.522;2023-06-22T14:26:53;10.23;;;4.90;;
10440;SDS011;5268;49.346;9.522;2023-06-22T14:31:57;10.18;;;4.55;;
10440;SDS011;5268;49.346;9.522;2023-06-22T14:37:00;9.82;;;4.45;;
10440;SDS011;5268;49.346;9.522;2023-06-22T14:42:02;9.35;;;4.18;;
10440;SDS011;5268;49.346;9.522;2023-06-22T14:47:06;11.77;;;4.47;;
10440;SDS011;5268;49.346;9.522;2023-06-22T14:52:09;11.13;;;4.63;;
10440;SDS011;5268;49.346;9.522;2023-06-22T14:57:10;11.60;;;4.90;;
10440;SDS011;5268;49.346;9.522;2023-06-22T15:02:14;14.13;;;4.63;;
10440;SDS011;5268;49.346;9.522;2023-06-22T15:07:17;10.32;;;4.40;;
10440;SDS011;5268;49.346;9.522;2023-06-22T15:12:19;10.93;;;4.45;;
10440;SDS011;5268;49.346;9.522;2023-06-22T15:17:22;10.07;;;4.30;;
10440;SDS011;5268;49.346;9.522;2023-06-22T15:22:29;13.20;;;4.63;;
10440;SDS011;5268;49.346;9.522;2023-06-22T15:27:31;10.45;;;4.20;;
10440;SDS011;5268;49.346;9.522;2023-06-22T15:32:35;9.60;;;4.72;;
10440;SDS011;5268;49.346;9.522;2023-06-22T15:37:37;10.60;;;4.43;;
10440;SDS011;5268;49.346;9.522;2023-06-22T15:42:39;7.30;;;4.20;;
10440;SDS011;5268;49.346;9.522;2023-06-22T15:47:42;8.75;;;4.72;;
10440;SDS011;5268;49.346;9.522;2023-06-22T15:52:45;9.30;;;4.43;;
10440;SDS011;5268;49.346;9.522;2023-06-22T15:57:50;9.30;;;4.82;;
10440;SDS011;5268;49.346;9.522;2023-06-22T16:02:54;11.77;;;4.68;;
10440;SDS011;5268;49.346;9.522;2023-06-22T16:07:56;10.38;;;4.82;;
10440;SDS011;5268;49.346;9.522;2023-06-22T16:12:58;10.30;;;5.55;;
10440;SDS011;5268;49.346;9.522;2023-06-22T16:18:01;9.50;;;5.30;;
10440;SDS011;5268;49.346;9.522;2023-06-22T16:23:04;11.10;;;5.60;;
10440;SDS011;5268;49.346;9.522;2023-06-22T16:28:06;11.20;;;5.40;;
10440;SDS011;5268;49.346;9.522;2023-06-22T16:33:10;12.88;;;5.57;;
10440;SDS011;5268;49.346;9.522;2023-06-22T16:38:12;9.30;;;5.53;;
10440;SDS011;5268;49.346;9.522;2023-06-22T16:43:14;10.90;;;5.30;;
10440;SDS011;5268;49.346;9.522;2023-06-22T16:48:18;9.88;;;5.35;;
10440;SDS011;5268;49.346;9.522;2023-06-22T16:53:20;9.20;;;5.20;;
10440;SDS011;5268;49.346;9.522;2023-06-22T16:58:22;11.85;;;6.50;;
10440;SDS011;5268;49.346;9.522;2023-06-22T17:03:27;10.40;;;5.68;;
10440;SDS011;5268;49.346;9.522;2023-06-22T17:08:31;11.13;;;5.20;;
10440;SDS011;5268;49.346;9.522;2023-06-22T17:13:34;10.48;;;5.22;;
10440;SDS011;5268;49.346;9.522;2023-06-22T17:18:38;9.18;;;5.85;;
10440;SDS011;5268;49.346;9.522;2023-06-22T17:23:41;9.43;;;5.70;;
10440;SDS011;5268;49.346;9.522;2023-06-22T17:28:46;11.70;;;6.28;;
10440;SDS011;5268;49.346;9.522;2023-06-22T17:33:50;9.38;;;5.43;;
10440;SDS011;5268;49.346;9.522;2023-06-22T17:38:52;7.78;;;5.55;;
10440;SDS011;5268;49.346;9.522;2023-06-22T17:44:00;9.90;;;5.22;;
10440;SDS011;5268;49.346;9.522;2023-06-22T17:49:10;9.40;;;5.50;;
10440;SDS011;5268;49.346;9.522;2023-06-22T17:54:15;12.65;;;5.28;;
10440;SDS011;5268;49.346;9.522;2023-06-22T17:59:17;10.00;;;5.80;;
10440;SDS011;5268;49.346;9.522;2023-06-22T18:04:21;10.68;;;6.03;;
10440;SDS011;5268;49.346;9.522;2023-06-22T18:09:24;11.90;;;5.90;;
10440;SDS011;5268;49.346;9.522;2023-06-22T18:14:28;11.13;;;5.70;;
10440;SDS011;5268;49.346;9.522;2023-06-22T18:19:34;13.07;;;6.07;;
10440;SDS011;5268;49.346;9.522;2023-06-22T18:24:39;10.52;;;5.93;;
10440;SDS011;5268;49.346;9.522;2023-06-22T18:29:41;8.25;;;5.88;;
10440;SDS011;5268;49.346;9.522;2023-06-22T18:34:46;12.00;;;6.00;;
10440;SDS011;5268;49.346;9.522;2023-06-22T18:39:49;12.15;;;6.13;;
10440;SDS011;5268;49.346;9.522;2023-06-22T18:44:54;9.50;;;5.72;;
10440;SDS011;5268;49.346;9.522;2023-06-22T18:50:05;10.55;;;6.13;;
10440;SDS011;5268;49.346;9.522;2023-06-22T18:55:11;15.68;;;6.53;;
10440;SDS011;5268;49.346;9.522;2023-06-22T19:00:14;15.70;;;7.32;;
10440;SDS011;5268;49.346;9.522;2023-06-22T19:05:19;13.10;;;6.40;;
10440;SDS011;5268;49.346;9.522;2023-06-22T19:10:39;9.60;;;5.75;;
10440;SDS011;5268;49.346;9.522;2023-06-22T19:15:42;12.60;;;6.07;;
